createdAt,value
2018-04-27T00:00:19.410Z,62.36
2018-04-27T00:01:19.885Z,62.85
2018-04-27T00:02:20.358Z,62.58
2018-04-27T00:03:20.831Z,62.11
2018-04-27T00:04:21.305Z,61.72
2018-04-27T00:05:21.779Z,62.19
2018-04-27T00:06:22.252Z,62.16
2018-04-27T00:07:22.726Z,62.19
2018-04-27T00:08:23.199Z,61.75
2018-04-27T00:09:23.672Z,62.35
2018-04-27T00:10:24.150Z,61.99
2018-04-27T00:11:24.622Z,61.82
2018-04-27T00:12:25.093Z,62.13
2018-04-27T00:13:25.567Z,62.29
2018-04-27T00:14:26.042Z,62.10
2018-04-27T00:15:26.515Z,61.90
2018-04-27T00:16:26.988Z,61.73
2018-04-27T00:17:27.463Z,62.06
2018-04-27T00:18:27.936Z,62.31
2018-04-27T00:19:28.410Z,61.98
2018-04-27T00:20:28.883Z,61.78
2018-04-27T00:21:29.356Z,62.17
2018-04-27T00:22:29.831Z,62.77
2018-04-27T00:23:30.305Z,62.33
2018-04-27T00:24:30.980Z,62.22
2018-04-27T00:25:31.253Z,62.11
2018-04-27T00:26:31.725Z,62.11
2018-04-27T00:27:32.200Z,62.19
2018-04-27T00:28:32.671Z,62.13
2018-04-27T00:29:33.147Z,62.21
2018-04-27T00:30:33.619Z,62.05
2018-04-27T00:31:34.096Z,61.91
2018-04-27T00:32:34.566Z,61.91
2018-04-27T00:33:35.040Z,61.99
2018-04-27T00:34:35.516Z,62.29
2018-04-27T00:35:35.988Z,62.07
2018-04-27T00:36:36.466Z,62.23
2018-04-27T00:37:36.936Z,62.40
2018-04-27T00:38:37.409Z,62.29
2018-04-27T00:39:38.037Z,62.40
2018-04-27T00:40:38.358Z,62.45
2018-04-27T00:41:38.832Z,62.75
2018-04-27T00:42:39.306Z,62.69
2018-04-27T00:43:39.780Z,62.83
2018-04-27T00:44:40.304Z,62.75
2018-04-27T00:45:40.729Z,62.53
2018-04-27T00:46:41.202Z,63.05
2018-04-27T00:47:41.675Z,62.91
2018-04-27T00:48:42.158Z,62.83
2018-04-27T00:49:42.622Z,62.96
2018-04-27T00:50:43.096Z,62.79
2018-04-27T00:51:43.575Z,63.12
2018-04-27T00:52:44.045Z,62.77
2018-04-27T00:53:44.519Z,62.68
2018-04-27T00:54:44.994Z,62.54
2018-04-27T00:55:45.466Z,62.74
2018-04-27T00:56:45.940Z,62.74
2018-04-27T00:57:46.414Z,62.68
2018-04-27T00:58:46.888Z,62.79
2018-04-27T00:59:47.413Z,62.84
2018-04-27T01:00:47.851Z,62.76
2018-04-27T01:01:48.312Z,62.95
2018-04-27T01:02:48.790Z,62.76
2018-04-27T01:03:49.258Z,62.89
2018-04-27T01:04:49.782Z,62.97
2018-04-27T01:05:50.206Z,63.02
2018-04-27T01:06:50.680Z,62.91
2018-04-27T01:07:51.154Z,63.10
2018-04-27T01:08:51.628Z,63.13
2018-04-27T01:09:52.101Z,62.85
2018-04-27T01:10:52.916Z,62.94
2018-04-27T01:11:53.053Z,63.13
2018-04-27T01:12:53.524Z,63.01
2018-04-27T01:13:53.997Z,62.96
2018-04-27T01:14:54.472Z,63.04
2018-04-27T01:15:54.946Z,63.01
2018-04-27T01:16:55.418Z,63.09
2018-04-27T01:17:55.893Z,63.09
2018-04-27T01:18:56.369Z,63.28
2018-04-27T01:19:56.892Z,63.17
2018-04-27T01:20:57.317Z,63.33
2018-04-27T01:21:57.790Z,63.17
2018-04-27T01:22:58.265Z,63.22
2018-04-27T01:23:58.737Z,63.14
2018-04-27T01:24:59.214Z,63.36
2018-04-27T01:25:59.685Z,63.06
2018-04-27T01:27:00.159Z,63.11
2018-04-27T01:28:00.634Z,63.38
2018-04-27T01:29:01.107Z,63.22
2018-04-27T01:30:01.580Z,63.19
2018-04-27T01:31:02.054Z,63.11
2018-04-27T01:32:02.530Z,63.13
2018-04-27T01:33:03.002Z,63.13
2018-04-27T01:34:03.476Z,63.10
2018-04-27T01:35:03.953Z,63.24
2018-04-27T01:36:04.426Z,63.48
2018-04-27T01:37:04.898Z,63.32
2018-04-27T01:38:05.372Z,63.37
2018-04-27T01:39:05.847Z,63.51
2018-04-27T01:40:06.372Z,63.37
2018-04-27T01:42:07.268Z,63.34
2018-04-27T01:43:07.742Z,63.34
2018-04-27T01:44:08.269Z,63.31
2018-04-27T01:45:08.690Z,63.58
2018-04-27T01:46:09.165Z,63.42
2018-04-27T01:47:09.638Z,63.39
2018-04-27T01:48:10.114Z,63.58
2018-04-27T01:49:10.587Z,63.53
2018-04-27T01:50:11.112Z,63.77
2018-04-27T01:51:11.538Z,63.61
2018-04-27T01:52:12.009Z,63.61
2018-04-27T01:53:12.482Z,63.69
2018-04-27T01:54:12.960Z,63.68
2018-04-27T01:55:13.430Z,63.68
2018-04-27T01:56:13.908Z,63.68
2018-04-27T01:57:14.377Z,63.74
2018-04-27T01:58:14.850Z,63.71
2018-04-27T01:59:15.326Z,63.74
2018-04-27T02:00:15.950Z,63.79
2018-04-27T02:01:16.273Z,63.74
2018-04-27T02:02:16.750Z,63.76
2018-04-27T02:03:17.221Z,63.76
2018-04-27T02:04:17.696Z,63.84
2018-04-27T02:05:18.420Z,63.95
2018-04-27T02:06:18.641Z,63.90
2018-04-27T02:07:19.117Z,63.92
2018-04-27T02:08:19.591Z,63.89
2018-04-27T02:09:20.067Z,63.89
2018-04-27T02:10:20.539Z,63.89
2018-04-27T02:11:21.011Z,63.97
2018-04-27T02:12:21.488Z,63.97
2018-04-27T02:13:21.960Z,63.95
2018-04-27T02:14:22.433Z,64.00
2018-04-27T02:15:22.908Z,63.94
2018-04-27T02:16:23.385Z,64.00
2018-04-27T02:17:23.855Z,63.97
2018-04-27T02:18:24.328Z,64.00
2018-04-27T02:19:24.805Z,64.08
2018-04-27T02:20:25.278Z,64.11
2018-04-27T02:21:25.752Z,64.13
2018-04-27T02:22:26.225Z,64.21
2018-04-27T02:23:26.698Z,64.19
2018-04-27T02:24:27.173Z,64.24
2018-04-27T02:25:27.644Z,64.29
2018-04-27T02:26:28.123Z,64.24
2018-04-27T02:27:28.595Z,64.21
2018-04-27T02:28:29.069Z,64.32
2018-04-27T02:29:29.542Z,64.34
2018-04-27T02:30:30.066Z,64.29
2018-04-27T02:31:30.489Z,64.34
2018-04-27T02:32:30.966Z,64.29
2018-04-27T02:33:31.436Z,64.23
2018-04-27T02:34:31.913Z,64.29
2018-04-27T02:35:32.385Z,64.29
2018-04-27T02:36:32.858Z,64.31
2018-04-27T02:37:33.338Z,64.31
2018-04-27T02:38:33.805Z,64.34
2018-04-27T02:39:34.281Z,64.31
2018-04-27T02:40:34.753Z,64.34
2018-04-27T02:41:35.225Z,64.34
2018-04-27T02:42:35.702Z,64.34
2018-04-27T02:43:36.173Z,64.31
2018-04-27T02:44:36.648Z,64.31
2018-04-27T02:45:37.121Z,64.36
2018-04-27T02:46:37.594Z,64.39
2018-04-27T02:47:38.070Z,64.36
2018-04-27T02:48:38.543Z,64.36
2018-04-27T02:49:39.016Z,64.42
2018-04-27T02:50:39.542Z,64.44
2018-04-27T02:51:39.965Z,64.47
2018-04-27T02:52:40.438Z,64.41
2018-04-27T02:53:40.911Z,64.44
2018-04-27T02:54:41.386Z,64.49
2018-04-27T02:55:41.862Z,64.52
2018-04-27T02:56:42.336Z,64.57
2018-04-27T02:57:42.812Z,64.52
2018-04-27T02:58:43.284Z,64.60
2018-04-27T02:59:43.768Z,64.65
2018-04-27T03:00:44.240Z,64.70
2018-04-27T03:01:44.704Z,64.79
2018-04-27T03:02:45.180Z,64.81
2018-04-27T03:03:45.652Z,64.84
2018-04-27T03:04:46.125Z,64.89
2018-04-27T03:05:46.751Z,64.91
2018-04-27T03:06:47.073Z,64.97
2018-04-27T03:07:47.545Z,64.97
2018-04-27T03:08:48.021Z,65.05
2018-04-27T03:09:48.495Z,65.16
2018-04-27T03:10:49.021Z,65.15
2018-04-27T03:11:49.440Z,65.26
2018-04-27T03:12:49.914Z,65.26
2018-04-27T03:13:50.388Z,65.26
2018-04-27T03:14:50.863Z,65.34
2018-04-27T03:15:51.336Z,65.39
2018-04-27T03:16:51.809Z,65.39
2018-04-27T03:17:52.282Z,65.47
2018-04-27T03:18:52.759Z,65.52
2018-04-27T03:19:53.230Z,65.58
2018-04-27T03:20:53.703Z,65.50
2018-04-27T03:21:54.175Z,65.63
2018-04-27T03:22:54.652Z,65.68
2018-04-27T03:23:55.226Z,65.71
2018-04-27T03:24:55.599Z,65.71
2018-04-27T03:25:56.073Z,65.76
2018-04-27T03:26:56.545Z,65.84
2018-04-27T03:27:57.019Z,65.76
2018-04-27T03:28:57.496Z,65.84
2018-04-27T03:29:57.967Z,65.92
2018-04-27T03:30:58.441Z,65.97
2018-04-27T03:31:58.914Z,66.00
2018-04-27T03:32:59.390Z,66.00
2018-04-27T03:33:59.863Z,66.03
2018-04-27T03:35:00.336Z,66.08
2018-04-27T03:36:00.810Z,66.16
2018-04-27T03:37:01.284Z,66.18
2018-04-27T03:38:01.757Z,66.21
2018-04-27T03:39:02.230Z,66.26
2018-04-27T03:40:02.703Z,66.26
2018-04-27T03:41:03.177Z,66.31
2018-04-27T03:42:03.650Z,66.39
2018-04-27T03:43:04.124Z,66.39
2018-04-27T03:44:04.598Z,66.42
2018-04-27T03:45:05.071Z,66.42
2018-04-27T03:46:05.700Z,66.50
2018-04-27T03:47:06.018Z,66.47
2018-04-27T03:48:06.491Z,66.52
2018-04-27T03:49:06.967Z,66.52
2018-04-27T03:50:07.439Z,66.63
2018-04-27T03:51:07.913Z,66.60
2018-04-27T03:52:08.386Z,66.65
2018-04-27T03:53:08.862Z,66.71
2018-04-27T03:54:09.340Z,66.71
2018-04-27T03:55:09.807Z,66.76
2018-04-27T03:56:10.432Z,66.81
2018-04-27T03:57:10.754Z,66.78
2018-04-27T03:58:11.227Z,66.76
2018-04-27T03:59:11.699Z,66.78
2018-04-27T04:00:12.175Z,66.81
2018-04-27T04:01:12.670Z,66.81
2018-04-27T04:02:13.121Z,66.86
2018-04-27T04:03:13.595Z,66.81
2018-04-27T04:04:14.070Z,66.86
2018-04-27T04:05:14.545Z,66.86
2018-04-27T04:06:15.015Z,66.86
2018-04-27T04:07:15.489Z,66.86
2018-04-27T04:08:15.962Z,66.91
2018-04-27T04:09:16.436Z,66.94
2018-04-27T04:10:16.913Z,66.96
2018-04-27T04:11:17.382Z,66.91
2018-04-27T04:12:17.857Z,66.91
2018-04-27T04:13:18.329Z,66.96
2018-04-27T04:14:18.802Z,67.02
2018-04-27T04:15:19.277Z,66.99
2018-04-27T04:16:19.750Z,66.96
2018-04-27T04:17:20.223Z,66.99
2018-04-27T04:18:20.694Z,67.01
2018-04-27T04:19:21.170Z,66.99
2018-04-27T04:20:21.643Z,67.07
2018-04-27T04:21:22.167Z,67.07
2018-04-27T04:22:22.590Z,67.02
2018-04-27T04:23:23.064Z,67.04
2018-04-27T04:24:23.540Z,67.04
2018-04-27T04:25:24.012Z,67.04
2018-04-27T04:26:24.535Z,67.01
2018-04-27T04:27:24.958Z,66.99
2018-04-27T04:28:25.437Z,66.94
2018-04-27T04:29:25.906Z,66.88
2018-04-27T04:30:26.379Z,66.88
2018-04-27T04:31:26.852Z,66.91
2018-04-27T04:32:27.388Z,66.94
2018-04-27T04:33:27.798Z,66.93
2018-04-27T04:34:28.271Z,66.88
2018-04-27T04:35:28.744Z,66.91
2018-04-27T04:36:29.221Z,66.91
2018-04-27T04:37:29.693Z,66.88
2018-04-27T04:38:30.166Z,66.86
2018-04-27T04:39:30.640Z,66.86
2018-04-27T04:40:31.113Z,66.83
2018-04-27T04:41:31.592Z,66.83
2018-04-27T04:42:32.061Z,66.86
2018-04-27T04:43:32.534Z,66.84
2018-04-27T04:44:33.010Z,66.86
2018-04-27T04:45:33.482Z,66.87
2018-04-27T04:46:33.960Z,66.89
2018-04-27T04:47:34.433Z,66.87
2018-04-27T04:48:34.902Z,66.87
2018-04-27T04:49:35.378Z,66.87
2018-04-27T04:50:35.850Z,66.85
2018-04-27T04:51:36.474Z,66.82
2018-04-27T04:52:36.808Z,66.82
2018-04-27T04:53:37.273Z,66.85
2018-04-27T04:54:37.745Z,66.85
2018-04-27T04:55:38.218Z,66.80
2018-04-27T04:56:38.743Z,66.91
2018-04-27T04:57:39.167Z,66.94
2018-04-27T04:58:39.640Z,67.03
2018-04-27T04:59:40.115Z,67.08
2018-04-27T05:00:40.588Z,67.04
2018-04-27T05:01:41.062Z,67.09
2018-04-27T05:02:41.599Z,67.02
2018-04-27T05:03:42.011Z,67.08
2018-04-27T05:04:42.484Z,67.14
2018-04-27T05:05:42.959Z,67.17
2018-04-27T05:06:43.433Z,67.20
2018-04-27T05:07:43.909Z,67.26
2018-04-27T05:08:44.381Z,67.24
2018-04-27T05:09:44.855Z,67.14
2018-04-27T05:10:45.374Z,67.04
2018-04-27T05:11:45.804Z,67.04
2018-04-27T05:12:46.279Z,67.13
2018-04-27T05:13:46.754Z,67.12
2018-04-27T05:14:47.227Z,67.15
2018-04-27T05:15:47.701Z,67.05
2018-04-27T05:16:48.227Z,67.03
2018-04-27T05:17:48.653Z,66.96
2018-04-27T05:18:49.127Z,66.91
2018-04-27T05:19:49.600Z,66.98
2018-04-27T05:20:50.072Z,66.96
2018-04-27T05:21:50.550Z,66.91
2018-04-27T05:22:51.024Z,66.84
2018-04-27T05:23:51.502Z,66.77
2018-04-27T05:24:51.970Z,66.68
2018-04-27T05:25:52.444Z,66.61
2018-04-27T05:26:52.970Z,66.56
2018-04-27T05:27:53.393Z,66.81
2018-04-27T05:28:53.870Z,66.74
2018-04-27T05:29:54.337Z,66.53
2018-04-27T05:30:54.810Z,66.49
2018-04-27T05:31:55.434Z,66.63
2018-04-27T05:32:55.755Z,66.67
2018-04-27T05:33:56.228Z,66.84
2018-04-27T05:34:56.698Z,66.58
2018-04-27T05:35:57.170Z,66.48
2018-04-27T05:36:57.642Z,66.39
2018-04-27T05:37:58.114Z,66.40
2018-04-27T05:38:58.584Z,66.27
2018-04-27T05:39:59.058Z,66.15
2018-04-27T05:40:59.528Z,66.29
2018-04-27T05:42:00.199Z,66.06
2018-04-27T05:43:00.468Z,65.97
2018-04-27T05:44:00.939Z,66.00
2018-04-27T05:45:01.410Z,66.01
2018-04-27T05:46:01.881Z,66.21
2018-04-27T05:47:02.352Z,66.06
2018-04-27T05:48:02.823Z,65.88
2018-04-27T05:49:03.374Z,65.76
2018-04-27T05:50:03.768Z,65.71
2018-04-27T05:51:04.237Z,65.64
2018-04-27T05:52:04.706Z,65.54
2018-04-27T05:53:05.178Z,65.53
2018-04-27T05:54:05.649Z,65.57
2018-04-27T05:55:06.120Z,65.60
2018-04-27T05:56:06.589Z,65.64
2018-04-27T05:57:07.112Z,65.49
2018-04-27T05:58:07.532Z,65.34
2018-04-27T05:59:08.004Z,65.24
2018-04-27T06:00:08.476Z,65.19
2018-04-27T06:01:08.950Z,65.09
2018-04-27T06:02:09.471Z,64.92
2018-04-27T06:03:09.892Z,64.85
2018-04-27T06:04:10.364Z,64.75
2018-04-27T06:05:10.834Z,64.84
2018-04-27T06:06:11.309Z,64.85
2018-04-27T06:07:11.779Z,64.94
2018-04-27T06:08:12.252Z,64.87
2018-04-27T06:09:12.730Z,64.88
2018-04-27T06:10:13.206Z,64.70
2018-04-27T06:11:13.669Z,64.63
2018-04-27T06:12:14.144Z,64.50
2018-04-27T06:13:14.618Z,64.48
2018-04-27T06:14:15.091Z,64.47
2018-04-27T06:15:15.563Z,64.39
2018-04-27T06:16:16.040Z,64.30
2018-04-27T06:17:16.511Z,64.17
2018-04-27T06:18:16.984Z,64.02
2018-04-27T06:19:17.461Z,63.89
2018-04-27T06:20:17.937Z,63.90
2018-04-27T06:21:18.409Z,63.82
2018-04-27T06:22:18.884Z,63.78
2018-04-27T06:23:19.354Z,63.68
2018-04-27T06:24:19.833Z,63.58
2018-04-27T06:25:20.305Z,63.56
2018-04-27T06:26:20.779Z,63.43
2018-04-27T06:27:21.254Z,63.38
2018-04-27T06:28:21.728Z,63.28
2018-04-27T06:29:22.201Z,63.18
2018-04-27T06:30:22.680Z,63.08
2018-04-27T06:31:23.151Z,63.00
2018-04-27T06:32:23.677Z,62.96
2018-04-27T06:33:24.103Z,62.91
2018-04-27T06:34:24.601Z,62.84
2018-04-27T06:35:25.052Z,62.74
2018-04-27T06:36:25.529Z,62.66
2018-04-27T06:37:26.002Z,62.59
2018-04-27T06:38:26.477Z,62.54
2018-04-27T06:39:27.023Z,62.38
2018-04-27T06:40:27.426Z,62.30
2018-04-27T06:41:27.906Z,62.23
2018-04-27T06:42:28.425Z,62.15
2018-04-27T06:43:28.847Z,62.13
2018-04-27T06:44:29.321Z,62.09
2018-04-27T06:45:29.797Z,62.04
2018-04-27T06:46:30.269Z,61.96
2018-04-27T06:47:30.742Z,61.86
2018-04-27T06:48:31.218Z,61.84
2018-04-27T06:49:31.689Z,61.73
2018-04-27T06:50:32.161Z,61.69
2018-04-27T06:51:32.651Z,61.67
2018-04-27T06:52:33.105Z,61.64
2018-04-27T06:53:33.578Z,61.60
2018-04-27T06:54:34.050Z,61.55
2018-04-27T06:55:34.523Z,61.50
2018-04-27T06:56:34.997Z,61.34
2018-04-27T06:57:35.469Z,61.29
2018-04-27T06:58:35.937Z,61.24
2018-04-27T06:59:36.413Z,61.17
2018-04-27T07:00:36.880Z,61.14
2018-04-27T07:01:37.351Z,61.12
2018-04-27T07:02:37.875Z,61.07
2018-04-27T07:03:38.294Z,61.08
2018-04-27T07:04:38.766Z,61.14
2018-04-27T07:05:39.237Z,61.12
2018-04-27T07:06:39.710Z,60.93
2018-04-27T07:07:40.179Z,60.80
2018-04-27T07:08:40.652Z,60.81
2018-04-27T07:10:41.595Z,60.74
2018-04-27T07:11:42.067Z,60.74
2018-04-27T07:12:42.589Z,60.72
2018-04-27T07:13:43.012Z,60.73
2018-04-27T07:14:43.482Z,60.65
2018-04-27T07:15:43.954Z,60.69
2018-04-27T07:17:44.898Z,60.47
2018-04-27T07:18:45.370Z,60.59
2018-04-27T07:19:45.843Z,60.54
2018-04-27T07:20:46.315Z,60.55
2018-04-27T07:21:46.792Z,60.50
2018-04-27T07:22:47.263Z,60.45
2018-04-27T07:23:47.734Z,60.40
2018-04-27T07:24:48.208Z,60.24
2018-04-27T07:25:48.684Z,60.22
2018-04-27T07:26:49.155Z,60.19
2018-04-27T07:27:49.677Z,60.17
2018-04-27T07:28:50.102Z,60.07
2018-04-27T07:29:50.578Z,60.02
2018-04-27T07:30:51.051Z,59.97
2018-04-27T07:31:51.525Z,60.00
2018-04-27T07:32:51.998Z,59.95
2018-04-27T07:33:52.477Z,59.85
2018-04-27T07:34:52.949Z,59.80
2018-04-27T07:35:53.423Z,59.77
2018-04-27T07:36:53.896Z,59.72
2018-04-27T07:37:54.373Z,59.67
2018-04-27T07:38:54.848Z,59.62
2018-04-27T07:39:55.329Z,59.54
2018-04-27T07:40:55.800Z,59.52
2018-04-27T07:41:56.273Z,59.44
2018-04-27T07:42:56.755Z,59.45
2018-04-27T07:43:57.225Z,59.34
2018-04-27T07:44:57.708Z,59.23
2018-04-27T07:45:58.176Z,59.21
2018-04-27T07:46:58.652Z,59.19
2018-04-27T07:47:59.176Z,59.17
2018-04-27T07:48:59.602Z,59.12
2018-04-27T07:50:00.079Z,58.98
2018-04-27T07:51:00.552Z,58.93
2018-04-27T07:52:01.027Z,58.85
2018-04-27T07:53:01.502Z,58.71
2018-04-27T07:54:01.976Z,58.69
2018-04-27T07:55:02.450Z,58.61
2018-04-27T07:56:02.925Z,58.53
2018-04-27T07:57:03.400Z,58.39
2018-04-27T07:58:03.923Z,58.34
2018-04-27T07:59:04.352Z,58.23
2018-04-27T08:00:04.826Z,58.09
2018-04-27T08:01:05.296Z,58.04
2018-04-27T08:02:05.854Z,57.93
2018-04-27T08:03:06.239Z,57.82
2018-04-27T08:04:06.715Z,57.80
2018-04-27T08:05:07.189Z,57.57
2018-04-27T08:06:07.657Z,57.55
2018-04-27T08:07:08.164Z,57.24
2018-04-27T08:08:08.756Z,57.13
2018-04-27T08:10:08.736Z,57.06
2018-04-27T08:11:06.569Z,56.80
2018-04-27T08:12:07.040Z,56.48
2018-04-27T08:13:07.513Z,56.34
2018-04-27T08:14:07.985Z,56.17
2018-04-27T08:15:08.454Z,56.24
2018-04-27T08:16:08.928Z,56.19
2018-04-27T08:17:09.398Z,55.97
2018-04-27T08:18:10.210Z,55.80
2018-04-27T08:19:10.341Z,55.72
2018-04-27T08:20:10.813Z,55.52
2018-04-27T08:21:11.285Z,55.20
2018-04-27T08:22:11.757Z,55.09
2018-04-27T08:23:12.228Z,54.86
2018-04-27T08:24:12.750Z,54.76
2018-04-27T08:25:13.176Z,54.61
2018-04-27T08:26:13.644Z,54.50
2018-04-27T08:27:14.119Z,54.12
2018-04-27T08:28:14.588Z,54.02
2018-04-27T08:29:15.403Z,53.69
2018-04-27T08:30:15.544Z,53.55
2018-04-27T08:31:16.210Z,53.26
2018-04-27T08:32:16.479Z,53.21
2018-04-27T08:33:16.952Z,53.10
2018-04-27T08:34:17.425Z,53.02
2018-04-27T08:35:17.898Z,52.93
2018-04-27T08:36:18.372Z,52.55
2018-04-27T08:37:18.847Z,52.35
2018-04-27T08:38:19.320Z,51.90
2018-04-27T08:39:19.795Z,51.79
2018-04-27T08:40:20.271Z,51.55
2018-04-27T08:41:20.744Z,51.59
2018-04-27T08:42:21.221Z,51.45
2018-04-27T08:43:21.763Z,51.27
2018-04-27T08:44:22.218Z,51.10
2018-04-27T08:45:22.645Z,50.77
2018-04-27T08:46:23.120Z,50.63
2018-04-27T08:47:23.597Z,50.39
2018-04-27T08:48:24.073Z,50.09
2018-04-27T08:49:24.547Z,49.79
2018-04-27T08:50:25.055Z,49.55
2018-04-27T08:51:25.498Z,49.63
2018-04-27T08:52:25.976Z,49.33
2018-04-27T08:53:26.452Z,49.15
2018-04-27T08:54:26.925Z,48.75
2018-04-27T08:55:27.404Z,48.39
2018-04-27T08:56:27.877Z,48.27
2018-04-27T08:57:28.353Z,48.03
2018-04-27T08:58:28.830Z,48.01
2018-04-27T08:59:29.303Z,47.67
2018-04-27T09:00:29.782Z,47.59
2018-04-27T09:01:30.256Z,47.47
2018-04-27T09:02:30.730Z,47.36
2018-04-27T09:03:31.206Z,47.15
2018-04-27T09:04:31.682Z,46.71
2018-04-27T09:05:32.157Z,46.82
2018-04-27T09:06:32.633Z,46.48
2018-04-27T09:07:33.105Z,46.14
2018-04-27T09:08:33.582Z,46.31
2018-04-27T09:09:34.056Z,45.87
2018-04-27T09:10:34.531Z,45.72
2018-04-27T09:11:35.006Z,45.25
2018-04-27T09:12:35.476Z,45.36
2018-04-27T09:13:35.950Z,45.30
2018-04-27T09:14:36.474Z,45.05
2018-04-27T09:15:36.898Z,44.74
2018-04-27T09:16:37.371Z,44.94
2018-04-27T09:17:37.844Z,44.76
2018-04-27T09:18:38.316Z,44.60
2018-04-27T09:19:38.842Z,44.58
2018-04-27T09:20:39.266Z,44.26
2018-04-27T09:21:39.773Z,44.27
2018-04-27T09:22:40.208Z,44.18
2018-04-27T09:23:40.686Z,44.16
2018-04-27T09:24:41.153Z,44.10
2018-04-27T09:25:41.625Z,43.91
2018-04-27T09:26:42.098Z,43.98
2018-04-27T09:27:42.569Z,43.47
2018-04-27T09:28:43.042Z,43.47
2018-04-27T09:29:43.518Z,43.28
2018-04-27T09:30:43.990Z,43.35
2018-04-27T09:31:44.457Z,43.62
2018-04-27T09:32:44.931Z,43.03
2018-04-27T09:33:45.404Z,43.36
2018-04-27T09:34:45.928Z,43.04
2018-04-27T09:35:46.346Z,43.30
2018-04-27T09:36:46.819Z,43.24
2018-04-27T09:37:47.293Z,43.43
2018-04-27T09:38:47.764Z,43.57
2018-04-27T09:39:48.242Z,43.44
2018-04-27T09:40:48.711Z,43.05
2018-04-27T09:41:49.185Z,42.79
2018-04-27T09:42:49.657Z,42.56
2018-04-27T09:43:50.135Z,42.99
2018-04-27T09:44:50.606Z,43.25
2018-04-27T09:45:51.080Z,42.79
2018-04-27T09:46:51.554Z,43.18
2018-04-27T09:47:52.030Z,43.18
2018-04-27T09:48:52.503Z,42.91
2018-04-27T09:49:52.978Z,43.50
2018-04-27T09:50:53.453Z,43.47
2018-04-27T09:51:53.928Z,43.60
2018-04-27T09:52:54.405Z,43.82
2018-04-27T09:53:54.877Z,43.73
2018-04-27T09:54:55.354Z,43.66
2018-04-27T09:55:55.830Z,43.83
2018-04-27T09:56:56.305Z,43.73
2018-04-27T09:57:56.782Z,43.77
2018-04-27T09:58:57.259Z,43.60
2018-04-27T09:59:57.784Z,43.54
2018-04-27T10:00:58.208Z,43.70
2018-04-27T10:01:58.685Z,43.61
2018-04-27T10:02:59.163Z,43.73
2018-04-27T10:03:59.638Z,43.67
2018-04-27T10:05:00.115Z,43.67
2018-04-27T10:06:00.590Z,43.92
2018-04-27T10:07:01.065Z,43.95
2018-04-27T10:08:01.543Z,43.82
2018-04-27T10:09:02.017Z,43.91
2018-04-27T10:10:02.495Z,44.07
2018-04-27T10:11:02.972Z,43.87
2018-04-27T10:12:03.446Z,44.16
2018-04-27T10:13:03.922Z,44.25
2018-04-27T10:14:04.397Z,44.38
2018-04-27T10:15:04.886Z,44.57
2018-04-27T10:16:05.346Z,44.50
2018-04-27T10:17:05.822Z,44.75
2018-04-27T10:18:06.296Z,44.91
2018-04-27T10:19:06.770Z,44.81
2018-04-27T10:20:07.296Z,45.13
2018-04-27T10:21:07.719Z,44.99
2018-04-27T10:22:08.196Z,45.47
2018-04-27T10:23:08.668Z,45.43
2018-04-27T10:24:09.141Z,45.68
2018-04-27T10:25:09.668Z,45.96
2018-04-27T10:26:10.091Z,45.57
2018-04-27T10:27:10.582Z,46.14
2018-04-27T10:28:11.037Z,46.10
2018-04-27T10:29:11.511Z,45.97
2018-04-27T10:30:11.983Z,45.99
2018-04-27T10:31:12.457Z,46.28
2018-04-27T10:32:12.929Z,46.52
2018-04-27T10:33:13.405Z,46.52
2018-04-27T10:34:13.876Z,46.04
2018-04-27T10:35:14.346Z,46.44
2018-04-27T10:36:14.818Z,46.37
2018-04-27T10:37:15.293Z,46.78
2018-04-27T10:38:15.765Z,47.18
2018-04-27T10:39:16.236Z,47.49
2018-04-27T10:40:16.708Z,47.77
2018-04-27T10:41:17.184Z,47.61
2018-04-27T10:42:17.652Z,47.47
2018-04-27T10:43:18.124Z,47.66
2018-04-27T10:44:18.598Z,47.47
2018-04-27T10:45:19.068Z,47.65
2018-04-27T10:46:19.539Z,47.71
2018-04-27T10:47:20.012Z,47.96
2018-04-27T10:48:20.483Z,48.08
2018-04-27T10:49:20.956Z,48.32
2018-04-27T10:50:21.540Z,48.16
2018-04-27T10:51:21.901Z,48.00
2018-04-27T10:52:22.374Z,48.37
2018-04-27T10:53:22.849Z,47.87
2018-04-27T10:54:23.321Z,48.18
2018-04-27T10:55:23.793Z,48.40
2018-04-27T10:56:24.267Z,48.92
2018-04-27T10:57:24.741Z,48.33
2018-04-27T10:58:25.221Z,48.82
2018-04-27T10:59:25.689Z,48.66
2018-04-27T11:00:26.164Z,48.72
2018-04-27T11:01:26.711Z,48.69
2018-04-27T11:02:27.114Z,48.84
2018-04-27T11:03:27.682Z,48.65
2018-04-27T11:04:28.064Z,48.65
2018-04-27T11:05:28.541Z,48.77
2018-04-27T11:06:29.016Z,48.71
2018-04-27T11:07:29.491Z,48.77
2018-04-27T11:08:29.966Z,48.80
2018-04-27T11:09:30.443Z,48.60
2018-04-27T11:10:30.919Z,48.45
2018-04-27T11:11:31.393Z,48.91
2018-04-27T11:12:31.871Z,48.88
2018-04-27T11:13:32.360Z,49.13
2018-04-27T11:14:32.822Z,48.94
2018-04-27T11:15:33.299Z,49.06
2018-04-27T11:16:33.778Z,49.03
2018-04-27T11:17:34.251Z,49.33
2018-04-27T11:18:34.725Z,49.37
2018-04-27T11:19:35.204Z,49.18
2018-04-27T11:20:35.678Z,49.17
2018-04-27T11:21:36.155Z,48.80
2018-04-27T11:22:36.630Z,48.95
2018-04-27T11:23:37.105Z,48.70
2018-04-27T11:24:37.584Z,48.67
2018-04-27T11:25:38.107Z,48.73
2018-04-27T11:26:38.532Z,48.79
2018-04-27T11:27:39.006Z,49.07
2018-04-27T11:28:39.530Z,49.04
2018-04-27T11:29:39.957Z,49.57
2018-04-27T11:30:40.430Z,49.32
2018-04-27T11:31:40.906Z,49.50
2018-04-27T11:32:41.381Z,49.41
2018-04-27T11:33:41.856Z,49.04
2018-04-27T11:34:42.327Z,49.41
2018-04-27T11:35:42.801Z,49.38
2018-04-27T11:36:43.276Z,49.28
2018-04-27T11:37:43.749Z,48.97
2018-04-27T11:38:44.224Z,49.28
2018-04-27T11:39:44.699Z,49.66
2018-04-27T11:40:45.229Z,49.47
2018-04-27T11:41:45.642Z,49.16
2018-04-27T11:42:46.114Z,49.38
2018-04-27T11:43:46.588Z,49.65
2018-04-27T11:44:47.060Z,49.59
2018-04-27T11:45:47.536Z,49.71
2018-04-27T11:46:48.008Z,50.12
2018-04-27T11:47:48.572Z,50.15
2018-04-27T11:48:48.951Z,49.28
2018-04-27T11:49:49.422Z,49.09
2018-04-27T11:50:49.894Z,49.56
2018-04-27T11:51:50.368Z,49.47
2018-04-27T11:52:50.836Z,49.66
2018-04-27T11:53:51.310Z,50.15
2018-04-27T11:54:51.783Z,50.28
2018-04-27T11:55:52.254Z,49.97
2018-04-27T11:56:52.727Z,50.28
2018-04-27T11:57:53.204Z,50.15
2018-04-27T11:58:53.671Z,50.24
2018-04-27T11:59:54.140Z,50.28
2018-04-27T12:00:54.665Z,50.56
2018-04-27T12:01:55.087Z,49.97
2018-04-27T12:02:55.562Z,50.09
2018-04-27T12:03:56.033Z,50.09
2018-04-27T12:04:56.507Z,49.60
2018-04-27T12:05:56.978Z,49.82
2018-04-27T12:06:57.453Z,49.82
2018-04-27T12:07:57.926Z,50.25
2018-04-27T12:08:58.400Z,50.16
2018-04-27T12:09:58.925Z,50.75
2018-04-27T12:10:59.346Z,50.59
2018-04-27T12:11:59.818Z,50.22
2018-04-27T12:13:00.296Z,50.53
2018-04-27T12:14:00.769Z,50.56
2018-04-27T12:15:01.249Z,50.90
2018-04-27T12:16:01.768Z,50.97
2018-04-27T12:17:02.195Z,51.09
2018-04-27T12:18:02.669Z,51.12
2018-04-27T12:19:03.146Z,50.66
2018-04-27T12:20:03.620Z,50.60
2018-04-27T12:21:04.095Z,51.34
2018-04-27T12:22:04.569Z,51.46
2018-04-27T12:23:05.046Z,51.43
2018-04-27T12:24:05.520Z,51.41
2018-04-27T12:25:05.998Z,51.44
2018-04-27T12:26:06.474Z,51.59
2018-04-27T12:27:06.951Z,51.75
2018-04-27T12:28:07.425Z,51.72
2018-04-27T12:29:07.902Z,51.66
2018-04-27T12:30:08.401Z,51.66
2018-04-27T12:31:08.914Z,51.54
2018-04-27T12:32:09.330Z,51.57
2018-04-27T12:33:09.810Z,51.66
2018-04-27T12:34:10.281Z,51.54
2018-04-27T12:35:10.757Z,52.06
2018-04-27T12:36:11.288Z,52.00
2018-04-27T12:37:11.708Z,52.04
2018-04-27T12:38:12.183Z,51.85
2018-04-27T12:39:12.661Z,52.19
2018-04-27T12:40:13.134Z,52.19
2018-04-27T12:41:13.660Z,52.28
2018-04-27T12:42:14.084Z,52.29
2018-04-27T12:43:14.559Z,51.89
2018-04-27T12:44:15.035Z,51.58
2018-04-27T12:45:15.509Z,51.86
2018-04-27T12:46:15.986Z,52.38
2018-04-27T12:47:16.456Z,52.32
2018-04-27T12:48:16.929Z,52.05
2018-04-27T12:49:17.403Z,52.60
2018-04-27T12:50:17.878Z,52.33
2018-04-27T12:51:18.355Z,52.14
2018-04-27T12:52:18.903Z,51.81
2018-04-27T12:53:19.300Z,51.87
2018-04-27T12:54:19.770Z,51.81
2018-04-27T12:55:20.248Z,51.78
2018-04-27T12:56:20.767Z,51.19
2018-04-27T12:57:21.196Z,50.98
2018-04-27T12:58:21.662Z,50.52
2018-04-27T12:59:22.134Z,50.52
2018-04-27T13:00:22.607Z,50.55
2018-04-27T13:01:23.080Z,51.32
2018-04-27T13:02:23.553Z,52.00